createdAt,value
2018-05-10T00:02:26.474Z,9.90
2018-05-10T00:04:58.762Z,9.67
2018-05-10T00:07:31.107Z,8.80
2018-05-10T00:10:03.836Z,8.77
2018-05-10T00:12:36.168Z,8.30
2018-05-10T00:15:08.455Z,8.10
2018-05-10T00:17:40.839Z,7.50
2018-05-10T00:20:13.228Z,7.60
2018-05-10T00:22:45.735Z,7.37
2018-05-10T00:25:20.543Z,7.40
2018-05-10T00:27:52.970Z,9.20
2018-05-10T00:30:25.399Z,9.47
2018-05-10T00:32:57.721Z,9.40
2018-05-10T00:35:30.068Z,9.33
2018-05-10T00:38:02.544Z,9.00
2018-05-10T00:40:34.895Z,8.87
2018-05-10T00:45:45.608Z,8.80
2018-05-10T00:48:17.939Z,10.73
2018-05-10T00:50:50.147Z,11.70
2018-05-10T00:53:22.460Z,12.30
2018-05-10T00:55:54.668Z,11.67
2018-05-10T00:58:26.940Z,11.00
2018-05-10T01:00:59.195Z,10.97
2018-05-10T01:03:31.483Z,10.17
2018-05-10T01:06:03.795Z,10.23
2018-05-10T01:08:36.432Z,9.67
2018-05-10T01:11:09.023Z,10.20
2018-05-10T01:13:41.298Z,10.50
2018-05-10T01:16:13.785Z,9.57
2018-05-10T01:18:46.026Z,8.80
2018-05-10T01:21:18.434Z,10.47
2018-05-10T01:23:50.953Z,10.13
2018-05-10T01:26:23.410Z,10.20
2018-05-10T01:28:55.699Z,9.70
2018-05-10T01:31:27.976Z,10.03
2018-05-10T01:34:00.326Z,10.23
2018-05-10T01:36:32.594Z,11.00
2018-05-10T01:39:05.043Z,9.97
2018-05-10T01:41:37.365Z,10.40
2018-05-10T01:44:09.683Z,9.80
2018-05-10T01:46:41.976Z,11.90
2018-05-10T01:49:14.319Z,10.60
2018-05-10T01:51:46.628Z,10.70
2018-05-10T01:54:19.007Z,11.07
2018-05-10T01:56:51.430Z,11.93
2018-05-10T01:59:23.717Z,11.27
2018-05-10T02:01:55.899Z,10.10
2018-05-10T02:04:28.303Z,10.37
2018-05-10T02:07:00.678Z,10.07
2018-05-10T02:09:33.027Z,9.53
2018-05-10T02:12:05.617Z,11.07
2018-05-10T02:14:37.921Z,9.20
2018-05-10T02:17:10.362Z,9.80
2018-05-10T02:19:42.651Z,10.10
2018-05-10T02:22:15.324Z,11.43
2018-05-10T02:24:47.656Z,12.13
2018-05-10T02:27:20.141Z,12.60
2018-05-10T02:29:52.476Z,12.80
2018-05-10T02:32:24.713Z,10.70
2018-05-10T02:34:57.110Z,11.23
2018-05-10T02:37:29.529Z,11.33
2018-05-10T02:40:01.936Z,9.83
2018-05-10T02:42:34.388Z,9.53
2018-05-10T02:45:06.829Z,9.93
2018-05-10T02:47:39.325Z,9.47
2018-05-10T02:50:11.616Z,10.03
2018-05-10T02:52:44.029Z,10.00
2018-05-10T02:55:16.481Z,9.63
2018-05-10T02:57:48.901Z,8.70
2018-05-10T03:00:21.254Z,8.57
2018-05-10T03:02:53.556Z,11.47
2018-05-10T03:05:25.926Z,9.47
2018-05-10T03:07:58.225Z,8.83
2018-05-10T03:10:30.593Z,9.97
2018-05-10T03:13:03.173Z,10.40
2018-05-10T03:15:35.700Z,11.03
2018-05-10T03:18:07.931Z,10.83
2018-05-10T03:20:40.283Z,10.63
2018-05-10T03:23:12.749Z,9.87
2018-05-10T03:25:45.208Z,9.90
2018-05-10T03:28:17.641Z,8.87
2018-05-10T03:30:50.037Z,8.80
2018-05-10T03:33:22.495Z,10.93
2018-05-10T03:35:54.891Z,10.33
2018-05-10T03:38:27.199Z,10.27
2018-05-10T03:40:59.546Z,18.20
2018-05-10T03:43:31.950Z,86.47
2018-05-10T03:46:04.337Z,19.23
2018-05-10T03:48:36.739Z,15.03
2018-05-10T03:51:09.034Z,15.00
2018-05-10T03:53:41.283Z,12.93
2018-05-10T03:56:13.653Z,12.43
2018-05-10T03:58:46.043Z,12.60
2018-05-10T04:01:18.561Z,13.87
2018-05-10T04:04:03.008Z,15.77
2018-05-10T04:06:47.318Z,42.23
2018-05-10T04:09:31.653Z,34.77
2018-05-10T04:12:04.113Z,29.67
2018-05-10T04:14:36.582Z,41.30
2018-05-10T04:17:08.886Z,41.50
2018-05-10T04:19:41.146Z,20.93
2018-05-10T04:22:13.469Z,25.00
2018-05-10T04:24:45.908Z,19.67
2018-05-10T04:27:18.313Z,18.33
2018-05-10T04:29:50.544Z,19.47
2018-05-10T04:32:22.783Z,20.30
2018-05-10T04:34:55.023Z,20.00
2018-05-10T04:37:27.301Z,19.80
2018-05-10T04:39:59.547Z,22.00
2018-05-10T04:42:31.937Z,20.10
2018-05-10T04:45:04.410Z,19.73
2018-05-10T04:47:36.744Z,20.80
2018-05-10T04:50:09.151Z,24.97
2018-05-10T04:52:41.440Z,23.00
2018-05-10T04:55:13.676Z,19.07
2018-05-10T04:57:46.191Z,18.43
2018-05-10T05:00:18.631Z,18.00
2018-05-10T05:02:50.976Z,17.10
2018-05-10T05:05:23.264Z,16.60
2018-05-10T05:07:55.618Z,16.03
2018-05-10T05:10:28.022Z,13.97
2018-05-10T05:13:00.402Z,15.43
2018-05-10T05:15:32.841Z,13.80
2018-05-10T05:18:05.105Z,13.30
2018-05-10T05:20:37.494Z,12.10
2018-05-10T05:23:09.874Z,12.37
2018-05-10T05:25:42.350Z,11.07
2018-05-10T05:28:14.655Z,11.37
2018-05-10T05:30:47.121Z,11.27
2018-05-10T05:33:19.447Z,11.57
2018-05-10T05:35:51.724Z,11.17
2018-05-10T05:38:24.101Z,10.73
2018-05-10T05:40:56.500Z,11.47
2018-05-10T05:43:28.914Z,11.10
2018-05-10T05:46:01.435Z,10.70
2018-05-10T05:48:33.666Z,10.03
2018-05-10T05:53:55.932Z,10.53
2018-05-10T05:56:22.205Z,9.63
2018-05-10T05:58:48.481Z,9.13
2018-05-10T06:01:14.839Z,9.07
2018-05-10T06:03:41.131Z,10.53
2018-05-10T06:06:07.415Z,9.43
2018-05-10T06:08:33.738Z,9.00
2018-05-10T06:11:00.030Z,8.17
2018-05-10T06:13:26.313Z,8.73
2018-05-10T06:15:52.803Z,8.27
2018-05-10T06:18:19.052Z,7.60
2018-05-10T06:20:45.327Z,6.97
2018-05-10T06:23:12.699Z,7.40
2018-05-10T06:25:38.984Z,7.70
2018-05-10T06:28:05.264Z,8.27
2018-05-10T06:30:31.583Z,8.40
2018-05-10T06:32:57.856Z,8.03
2018-05-10T06:35:24.139Z,7.67
2018-05-10T06:37:50.458Z,8.20
2018-05-10T06:40:16.940Z,7.63
2018-05-10T06:42:43.216Z,7.73
2018-05-10T06:45:09.592Z,7.93
2018-05-10T06:47:35.871Z,7.93
2018-05-10T06:50:02.172Z,7.50
2018-05-10T06:52:28.505Z,7.87
2018-05-10T06:54:54.815Z,7.77
2018-05-10T06:57:21.125Z,7.77
2018-05-10T06:59:47.450Z,8.17
2018-05-10T07:02:13.728Z,7.80
2018-05-10T07:04:40.009Z,8.37
2018-05-10T07:07:06.420Z,8.80
2018-05-10T07:09:32.940Z,7.27
2018-05-10T07:11:59.088Z,8.27
2018-05-10T07:14:25.433Z,7.73
2018-05-10T07:16:51.831Z,7.13
2018-05-10T07:19:18.116Z,7.20
2018-05-10T07:21:44.443Z,6.77
2018-05-10T07:24:10.714Z,7.77
2018-05-10T07:26:38.172Z,7.70
2018-05-10T07:29:04.671Z,7.00
2018-05-10T07:31:30.946Z,7.40
2018-05-10T07:33:57.234Z,7.57
2018-05-10T07:36:23.560Z,8.07
2018-05-10T07:38:49.841Z,7.30
2018-05-10T07:41:16.136Z,7.77
2018-05-10T07:43:42.452Z,7.97
2018-05-10T07:46:08.773Z,7.97
2018-05-10T07:48:35.081Z,7.13
2018-05-10T07:51:01.484Z,7.97
2018-05-10T07:53:27.766Z,8.00
2018-05-10T07:55:54.043Z,7.90
2018-05-10T07:58:20.372Z,7.17
2018-05-10T08:00:46.669Z,7.83
2018-05-10T08:03:12.969Z,8.60
2018-05-10T08:05:39.301Z,8.70
2018-05-10T08:08:05.606Z,8.10
2018-05-10T08:10:31.900Z,8.47
2018-05-10T08:12:58.299Z,8.70
2018-05-10T08:15:24.577Z,7.70
2018-05-10T08:17:51.032Z,9.43
2018-05-10T08:20:17.361Z,8.27
2018-05-10T08:22:43.639Z,8.37
2018-05-10T08:25:09.945Z,7.60
2018-05-10T08:27:45.192Z,8.40
2018-05-10T08:30:11.595Z,7.83
2018-05-10T08:32:37.790Z,7.63
2018-05-10T08:35:04.263Z,8.40
2018-05-10T08:37:30.561Z,7.37
2018-05-10T08:39:56.948Z,18.63
2018-05-10T08:42:23.293Z,38.00
2018-05-10T08:44:49.613Z,33.13
2018-05-10T08:47:15.894Z,18.87
2018-05-10T08:49:42.210Z,12.10
2018-05-10T08:52:08.490Z,15.10
2018-05-10T08:54:34.796Z,9.73
2018-05-10T08:57:01.161Z,7.37
2018-05-10T08:59:27.426Z,7.63
2018-05-10T09:01:53.708Z,9.43
2018-05-10T09:04:20.024Z,10.50
2018-05-10T09:06:46.282Z,9.30
2018-05-10T09:09:12.579Z,8.70
2018-05-10T09:11:38.885Z,7.60
2018-05-10T09:14:05.200Z,6.60
2018-05-10T09:16:31.479Z,7.30
2018-05-10T09:19:00.903Z,7.17
2018-05-10T09:21:27.181Z,7.20
2018-05-10T09:23:53.498Z,7.10
2018-05-10T09:26:19.823Z,6.30
2018-05-10T09:28:46.102Z,6.67
2018-05-10T09:31:12.364Z,6.90
2018-05-10T09:33:38.731Z,6.90
2018-05-10T09:36:05.008Z,7.00
2018-05-10T09:38:31.288Z,6.73
2018-05-10T09:40:57.672Z,7.73
2018-05-10T09:43:23.936Z,6.27
2018-05-10T09:45:50.231Z,6.50
2018-05-10T09:48:16.541Z,8.57
2018-05-10T09:50:42.805Z,7.87
2018-05-10T09:53:09.097Z,7.70
2018-05-10T09:55:35.432Z,9.50
2018-05-10T09:58:01.784Z,8.17
2018-05-10T10:00:28.929Z,9.27
2018-05-10T10:02:55.293Z,9.67
2018-05-10T10:05:21.600Z,9.90
2018-05-10T10:07:47.888Z,10.13
2018-05-10T10:10:14.202Z,10.33
2018-05-10T10:12:40.503Z,10.87
2018-05-10T10:15:06.792Z,10.03
2018-05-10T10:17:33.113Z,9.30
2018-05-10T10:19:59.938Z,10.17
2018-05-10T10:22:26.207Z,10.40
2018-05-10T10:24:55.515Z,11.47
2018-05-10T10:27:21.879Z,11.53
2018-05-10T10:29:48.122Z,11.63
2018-05-10T10:32:14.699Z,11.13
2018-05-10T10:34:40.926Z,10.53
2018-05-10T10:37:07.211Z,9.57
2018-05-10T10:39:33.576Z,11.07
2018-05-10T10:41:59.948Z,9.57
2018-05-10T10:44:26.232Z,10.17
2018-05-10T10:46:52.607Z,10.83
2018-05-10T10:49:18.909Z,8.53
2018-05-10T10:51:45.195Z,9.13
2018-05-10T10:54:11.614Z,11.70
2018-05-10T10:56:37.901Z,10.80
2018-05-10T10:59:04.189Z,9.83
2018-05-10T11:01:30.505Z,11.03
2018-05-10T11:03:56.800Z,10.87
2018-05-10T11:06:25.699Z,11.80
2018-05-10T11:08:52.259Z,13.77
2018-05-10T11:11:18.482Z,13.00
2018-05-10T11:13:44.770Z,13.37
2018-05-10T11:16:11.079Z,11.47
2018-05-10T11:18:37.352Z,10.37
2018-05-10T11:21:08.944Z,9.40
2018-05-10T11:23:35.269Z,9.53
2018-05-10T11:26:01.605Z,8.67
2018-05-10T11:28:28.004Z,8.53
2018-05-10T11:30:54.467Z,9.30
2018-05-10T11:33:20.943Z,9.13
2018-05-10T11:35:47.211Z,7.87
2018-05-10T11:38:13.592Z,7.57
2018-05-10T11:40:40.928Z,7.50
2018-05-10T11:43:08.199Z,7.40
2018-05-10T11:45:34.623Z,7.03
2018-05-10T11:48:01.024Z,7.53
2018-05-10T11:50:27.400Z,7.40
2018-05-10T11:52:53.808Z,8.03
2018-05-10T11:55:20.126Z,8.20
2018-05-10T11:57:46.484Z,7.57
2018-05-10T12:00:12.886Z,7.20
2018-05-10T12:02:39.235Z,7.03
2018-05-10T12:05:05.475Z,7.40
2018-05-10T12:07:31.893Z,6.60
2018-05-10T12:09:58.184Z,7.23
2018-05-10T12:12:24.462Z,7.90
2018-05-10T12:14:50.821Z,7.97
2018-05-10T12:17:17.104Z,6.87
2018-05-10T12:19:43.380Z,7.13
2018-05-10T12:22:09.799Z,7.57
2018-05-10T12:24:36.075Z,7.40
2018-05-10T12:27:02.355Z,6.80
2018-05-10T12:29:28.676Z,7.73
2018-05-10T12:31:54.952Z,7.53
2018-05-10T12:34:21.238Z,7.90
2018-05-10T12:36:47.636Z,7.03
2018-05-10T12:39:13.968Z,6.20
2018-05-10T12:41:40.291Z,4.50
2018-05-10T12:44:06.633Z,5.53
2018-05-10T12:46:32.921Z,8.60
2018-05-10T12:48:59.318Z,9.93
2018-05-10T12:51:25.652Z,5.90
2018-05-10T12:53:51.957Z,4.10
2018-05-10T12:56:18.267Z,3.63
2018-05-10T12:58:44.660Z,4.00
2018-05-10T13:01:10.942Z,3.50
2018-05-10T13:03:37.237Z,3.77
2018-05-10T13:06:03.544Z,3.70
2018-05-10T13:08:29.926Z,3.40
2018-05-10T13:10:56.135Z,4.57
2018-05-10T13:13:22.450Z,3.90
2018-05-10T13:15:48.762Z,3.67
2018-05-10T13:18:15.039Z,4.00
2018-05-10T13:20:43.157Z,4.37
2018-05-10T13:23:09.898Z,4.40
2018-05-10T13:25:36.226Z,4.43
2018-05-10T13:28:02.552Z,3.97
2018-05-10T13:30:28.865Z,7.53
2018-05-10T13:32:55.152Z,8.23
2018-05-10T13:35:21.477Z,6.53
2018-05-10T13:37:47.761Z,5.53
2018-05-10T13:40:14.052Z,5.80
2018-05-10T13:42:40.427Z,6.60
2018-05-10T13:45:06.722Z,7.50
2018-05-10T13:47:33.056Z,4.80
2018-05-10T13:49:59.382Z,4.03
2018-05-10T13:52:25.697Z,4.10
2018-05-10T13:54:51.984Z,3.40
2018-05-10T13:57:18.380Z,3.87
2018-05-10T13:59:44.673Z,3.70
2018-05-10T14:02:10.942Z,3.47
2018-05-10T14:04:37.373Z,5.40
2018-05-10T14:07:03.600Z,4.97
2018-05-10T14:09:29.884Z,5.13
2018-05-10T14:11:56.225Z,5.33
2018-05-10T14:14:22.507Z,4.73
2018-05-10T14:16:48.800Z,4.47
2018-05-10T14:19:15.164Z,6.47
2018-05-10T14:21:41.472Z,5.97
2018-05-10T14:24:07.874Z,6.83
2018-05-10T14:26:34.341Z,4.90
2018-05-10T14:29:00.611Z,4.50
2018-05-10T14:31:26.908Z,4.77
2018-05-10T14:33:53.221Z,4.67
2018-05-10T14:36:19.495Z,4.83
2018-05-10T14:38:45.776Z,6.40
2018-05-10T14:41:12.087Z,5.13
2018-05-10T14:43:38.359Z,4.50
2018-05-10T14:46:04.692Z,35.60
2018-05-10T14:48:31.074Z,19.83
2018-05-10T14:50:57.404Z,4.33
2018-05-10T14:53:23.682Z,4.83
2018-05-10T14:55:50.019Z,4.87
2018-05-10T14:58:16.320Z,5.63
2018-05-10T15:00:42.622Z,5.70
2018-05-10T15:03:08.973Z,5.93
2018-05-10T15:05:35.261Z,6.53
2018-05-10T15:08:01.684Z,8.60
2018-05-10T15:10:28.224Z,9.10
2018-05-10T15:12:54.517Z,10.63
2018-05-10T15:15:20.804Z,12.20
2018-05-10T15:17:47.155Z,12.50
